Time;durP1;ratioP1;P1;durP2;ratioP2;P2;SDS_P1;SDS_P2;PMS_P1;PMS_P2;Temp;Humidity;BMP_temperature;BMP_pressure;BME280_temperature;BME280_humidity;BME280_pressure;Samples;Min_cycle;Max_cycle;Signal;HPM_P1;HPM_P2
2021/09/15 00:01:42;;;;;;;6.03;3.07;;;;;;;13.31;78.31;100837.47;1710078;82;21280;-70
2021/09/15 00:04:10;;;;;;;5.37;3.20;;;;;;;13.27;78.38;100839.08;1711506;83;21269;-70
2021/09/15 00:06:37;;;;;;;4.63;2.83;;;;;;;13.22;78.55;100843.86;1716868;82;21421;-70
2021/09/15 00:09:03;;;;;;;5.57;3.07;;;;;;;13.19;78.67;100843.05;1709490;82;21261;-70
2021/09/15 00:11:31;;;;;;;5.27;3.20;;;;;;;13.16;78.74;100844.92;1719918;83;21292;-70
2021/09/15 00:13:58;;;;;;;4.90;2.90;;;;;;;13.11;78.74;100847.61;1703725;82;21282;-71
2021/09/15 00:16:24;;;;;;;3.93;2.80;;;;;;;13.10;78.75;100851.38;1719308;82;21308;-70
2021/09/15 00:18:51;;;;;;;4.70;3.10;;;;;;;13.07;78.75;100857.27;1723181;81;21713;-71
2021/09/15 00:21:19;;;;;;;7.60;3.50;;;;;;;13.04;78.83;100859.94;1716326;83;21788;-71
2021/09/15 00:23:46;;;;;;;5.23;2.87;;;;;;;13.01;78.91;100861.02;1710956;82;21234;-71
2021/09/15 00:26:15;;;;;;;4.93;2.90;;;;;;;12.98;79.01;100871.72;1712125;82;21224;-71
2021/09/15 00:28:42;;;;;;;5.30;3.27;;;;;;;12.94;79.09;100869.31;1717758;83;22726;-72
2021/09/15 00:31:09;;;;;;;6.00;3.27;;;;;;;12.91;79.17;100873.32;1718730;82;21436;-72
2021/09/15 00:33:36;;;;;;;7.13;3.37;;;;;;;12.89;79.17;100871.97;1698275;83;21978;-72
2021/09/15 00:36:05;;;;;;;5.40;3.30;;;;;;;12.87;79.12;100870.10;1716011;82;21741;-72
2021/09/15 00:38:31;;;;;;;7.57;4.00;;;;;;;12.85;79.22;100869.55;1703894;82;21754;-72
2021/09/15 00:41:01;;;;;;;7.40;4.00;;;;;;;12.83;79.29;100860.95;1714522;83;21260;-72
2021/09/15 00:43:28;;;;;;;7.20;3.97;;;;;;;12.78;79.35;100856.40;1714561;83;21307;-72
2021/09/15 00:45:58;;;;;;;6.93;3.43;;;;;;;12.76;79.39;100856.38;1717752;82;21830;-72
2021/09/15 00:48:27;;;;;;;8.78;3.50;;;;;;;12.71;79.46;100868.45;1715226;83;21380;-72
2021/09/15 00:50:53;;;;;;;8.87;4.97;;;;;;;12.67;79.58;100864.95;1706717;83;21167;-71
2021/09/15 00:53:21;;;;;;;6.13;3.77;;;;;;;12.66;79.62;100862.52;1716269;82;22553;-72
2021/09/15 00:55:48;;;;;;;5.23;3.43;;;;;;;12.56;79.82;100861.14;1707686;83;21422;-70
2021/09/15 00:58:16;;;;;;;7.40;3.90;;;;;;;12.47;80.17;100869.41;1706702;83;21343;-70
2021/09/15 01:00:44;;;;;;;6.83;3.50;;;;;;;12.42;80.45;100875.02;1707962;83;21290;-70
2021/09/15 01:03:11;;;;;;;6.87;3.97;;;;;;;12.39;80.57;100873.41;1701022;82;21168;-70
2021/09/15 01:05:39;;;;;;;7.73;3.83;;;;;;;12.36;80.68;100874.72;1719550;83;21721;-70
2021/09/15 01:08:07;;;;;;;6.60;3.93;;;;;;;12.34;80.79;100876.05;1716223;83;21343;-70
2021/09/15 01:10:35;;;;;;;6.10;3.90;;;;;;;12.30;80.89;100879.78;1719876;83;21323;-70
2021/09/15 01:13:08;;;;;;;8.65;3.98;;;;;;;12.28;80.98;100875.23;1706662;83;22433;-70
2021/09/15 01:15:45;;;;;;;6.47;3.60;;;;;;;12.26;81.07;100876.55;1710418;82;21812;-71
2021/09/15 01:18:19;;;;;;;6.50;3.80;;;;;;;12.23;81.15;100884.56;1695814;83;21821;-71
2021/09/15 01:21:15;;;;;;;6.10;3.47;;;;;;;12.22;81.23;100885.64;1711942;82;21181;-71
2021/09/15 01:23:52;;;;;;;5.70;3.30;;;;;;;12.19;81.22;100886.96;1711653;83;21223;-71
2021/09/15 01:26:42;;;;;;;5.17;3.80;;;;;;;12.15;81.21;100881.86;1705210;83;21371;-71
2021/09/15 01:29:24;;;;;;;7.80;3.47;;;;;;;12.10;81.23;100884.49;1707241;83;21416;-70
2021/09/15 01:32:10;;;;;;;5.05;3.52;;;;;;;12.08;81.35;100887.17;1717352;83;21406;-71
2021/09/15 01:34:45;;;;;;;6.73;3.50;;;;;;;12.05;81.49;100881.80;1689868;84;21227;-71
2021/09/15 01:37:15;;;;;;;6.40;3.50;;;;;;;12.03;81.42;100885.80;1713527;82;21792;-71
2021/09/15 01:39:57;;;;;;;5.33;3.57;;;;;;;11.98;81.29;100887.92;1694245;83;21343;-71
2021/09/15 01:42:26;;;;;;;6.53;3.57;;;;;;;11.93;81.28;100877.97;1687774;83;21400;-70
2021/09/15 01:44:57;;;;;;;5.07;3.63;;;;;;;11.89;81.27;100876.08;1702328;84;21089;-71
2021/09/15 01:47:32;;;;;;;6.10;4.00;;;;;;;11.86;81.24;100879.27;1722935;82;21201;-72
2021/09/15 01:50:01;;;;;;;5.90;3.50;;;;;;;11.81;81.32;100875.97;1709754;83;21896;-71
2021/09/15 01:52:31;;;;;;;6.33;3.73;;;;;;;11.77;81.39;100876.75;1712864;82;21894;-72
2021/09/15 01:55:00;;;;;;;6.77;3.63;;;;;;;11.70;81.46;100875.09;1711533;83;21288;-71
2021/09/15 01:57:33;;;;;;;5.37;3.67;;;;;;;11.67;81.63;100870.80;1720938;82;21773;-71
2021/09/15 02:00:03;;;;;;;4.53;3.10;;;;;;;11.64;81.61;100868.63;1710649;82;21161;-72
2021/09/15 02:02:52;;;;;;;5.17;3.53;;;;;;;11.61;81.64;100883.85;1692159;84;21351;-69
2021/09/15 02:05:25;;;;;;;4.93;3.60;;;;;;;11.58;81.70;100883.02;1684058;83;21932;-69
2021/09/15 02:07:54;;;;;;;8.13;3.97;;;;;;;11.56;81.82;100884.63;1683352;82;21232;-70
2021/09/15 02:10:33;;;;;;;5.67;3.92;;;;;;;11.56;82.06;100885.16;1703673;83;21756;-69
2021/09/15 02:13:09;;;;;;;5.87;3.50;;;;;;;11.56;82.32;100886.50;1699215;83;21305;-69
2021/09/15 02:15:52;;;;;;;7.60;3.80;;;;;;;11.57;82.58;100886.23;1705294;82;21072;-70
2021/09/15 02:18:22;;;;;;;5.93;3.80;;;;;;;11.57;82.75;100888.11;1685257;84;21615;-70
2021/09/15 02:20:56;;;;;;;6.50;3.40;;;;;;;11.57;82.86;100892.12;1704186;82;22240;-69
2021/09/15 02:23:27;;;;;;;7.13;4.20;;;;;;;11.56;83.10;100894.53;1698956;82;21330;-70
2021/09/15 02:26:16;;;;;;;6.67;4.17;;;;;;;11.55;83.29;100884.36;1681752;84;21268;-69
2021/09/15 02:28:48;;;;;;;6.35;3.90;;;;;;;11.55;83.53;100895.06;1709683;83;21248;-70
2021/09/15 02:31:32;;;;;;;6.30;4.30;;;;;;;11.55;83.75;100891.56;1711714;82;20954;-69
2021/09/15 02:34:03;;;;;;;7.50;3.43;;;;;;;11.55;83.95;100895.06;1707431;83;21025;-70
2021/09/15 02:36:36;;;;;;;5.05;3.37;;;;;;;11.56;83.97;100896.67;1713213;83;21228;-70
2021/09/15 02:39:14;;;;;;;6.07;3.67;;;;;;;11.54;83.74;100897.98;1712207;83;21070;-70
2021/09/15 02:41:46;;;;;;;7.00;3.70;;;;;;;11.50;83.50;100893.13;1722425;81;21940;-70
2021/09/15 02:44:21;;;;;;;5.67;3.30;;;;;;;11.47;83.32;100898.99;1687079;82;21109;-70
2021/09/15 02:47:07;;;;;;;7.60;4.23;;;;;;;11.44;83.21;100894.69;1725306;83;22032;-69
2021/09/15 02:49:54;;;;;;;5.40;3.62;;;;;;;11.41;83.15;100897.33;1719852;82;21201;-69
2021/09/15 02:52:46;;;;;;;5.13;3.33;;;;;;;11.38;83.09;100905.05;1699920;82;21554;-69
2021/09/15 02:55:21;;;;;;;5.37;3.40;;;;;;;11.34;82.95;100904.76;1634948;85;21467;-70
2021/09/15 02:57:56;;;;;;;5.10;3.27;;;;;;;11.30;82.87;100905.53;1667597;84;21037;-70
2021/09/15 03:00:36;;;;;;;3.95;2.87;;;;;;;11.22;83.04;100908.94;1693236;84;21022;-69
2021/09/15 03:03:16;;;;;;;5.92;3.17;;;;;;;11.11;83.16;100905.06;1739673;81;21007;-70
2021/09/15 03:05:53;;;;;;;5.25;3.45;;;;;;;10.91;83.48;100906.45;1721243;82;21099;-69
2021/09/15 03:08:32;;;;;;;5.53;3.40;;;;;;;10.85;83.91;100914.67;1690801;83;21569;-69
2021/09/15 03:11:03;;;;;;;4.72;3.30;;;;;;;10.81;84.09;100906.34;1653694;83;21053;-69
2021/09/15 03:13:33;;;;;;;6.00;3.30;;;;;;;10.79;84.22;100903.11;1695652;84;21109;-69
2021/09/15 03:16:01;;;;;;;4.92;3.50;;;;;;;10.78;84.23;100905.50;1711811;83;21022;-69
2021/09/15 03:18:32;;;;;;;5.33;3.12;;;;;;;10.75;84.26;100909.48;1736419;81;21086;-70
2021/09/15 03:21:08;;;;;;;5.42;3.20;;;;;;;10.73;84.21;100909.47;1754693;81;20999;-70
2021/09/15 03:23:44;;;;;;;5.47;3.00;;;;;;;10.72;84.13;100913.17;1707763;81;21061;-69
2021/09/15 03:26:12;;;;;;;6.20;3.30;;;;;;;10.67;84.03;100912.59;1752529;81;21115;-70
2021/09/15 03:28:46;;;;;;;5.25;2.90;;;;;;;10.65;84.02;100913.89;1733524;81;20962;-70
2021/09/15 03:31:19;;;;;;;6.60;2.92;;;;;;;10.62;83.99;100915.20;1679801;84;21059;-69
2021/09/15 03:33:46;;;;;;;5.55;3.08;;;;;;;10.62;84.05;100915.73;1710530;82;21104;-70
2021/09/15 03:36:16;;;;;;;5.03;2.90;;;;;;;10.57;83.97;100919.16;1712972;83;20948;-70
2021/09/15 03:38:44;;;;;;;4.17;2.58;;;;;;;10.48;83.89;100922.77;1740112;81;21484;-70
2021/09/15 03:41:14;;;;;;;4.33;2.60;;;;;;;10.33;83.94;100922.05;1708599;82;21131;-70
2021/09/15 03:43:45;;;;;;;4.85;2.80;;;;;;;10.29;84.10;100921.44;1704995;84;21029;-69
2021/09/15 03:46:19;;;;;;;3.95;2.70;;;;;;;10.27;84.21;100925.70;1713539;82;21551;-69
2021/09/15 03:48:50;;;;;;;5.28;2.92;;;;;;;10.26;84.22;100927.27;1716509;82;21145;-69
2021/09/15 03:51:20;;;;;;;4.35;2.80;;;;;;;10.21;84.23;100925.84;1709671;83;21042;-70
2021/09/15 03:53:54;;;;;;;4.90;2.80;;;;;;;10.21;84.36;100929.31;1688214;84;21071;-71
2021/09/15 03:56:28;;;;;;;4.75;3.08;;;;;;;10.20;84.37;100929.55;1683109;83;21057;-69
2021/09/15 03:58:56;;;;;;;4.33;2.87;;;;;;;10.18;84.46;100926.33;1683038;83;21540;-69
2021/09/15 04:01:26;;;;;;;5.95;3.37;;;;;;;10.16;84.49;100931.09;1709819;82;21380;-69
2021/09/15 04:04:05;;;;;;;5.87;3.65;;;;;;;10.17;84.60;100928.70;1719179;82;21590;-70
2021/09/15 04:06:41;;;;;;;6.80;4.08;;;;;;;10.13;84.72;100929.72;1702482;83;21064;-70
2021/09/15 04:09:10;;;;;;;5.65;3.75;;;;;;;10.12;84.98;100933.45;1724966;83;21051;-70
2021/09/15 04:11:43;;;;;;;5.37;3.52;;;;;;;10.16;85.18;100936.44;1712613;83;21242;-70
2021/09/15 04:14:16;;;;;;;6.53;3.90;;;;;;;10.22;85.29;100935.45;1726428;82;21104;-70
2021/09/15 04:16:47;;;;;;;4.53;2.52;;;;;;;10.29;85.39;100938.26;1724647;83;21076;-70
2021/09/15 04:19:17;;;;;;;6.15;3.85;;;;;;;10.39;85.51;100945.61;1726345;83;21472;-70
2021/09/15 04:21:48;;;;;;;5.40;3.08;;;;;;;10.48;85.54;100943.33;1724654;82;20970;-69
2021/09/15 04:24:35;;;;;;;4.10;2.92;;;;;;;10.55;85.55;100936.75;1724907;83;21098;-69
2021/09/15 04:32:24;;;;;;;5.37;3.80;;;;;;;10.84;85.61;100943.79;1723214;82;21022;-70
2021/09/15 04:34:54;;;;;;;7.30;3.75;;;;;;;10.96;85.80;100945.28;1736787;81;21003;-70
2021/09/15 04:37:27;;;;;;;5.30;3.52;;;;;;;11.12;85.98;100948.11;1753374;81;21158;-70
2021/09/15 04:39:59;;;;;;;5.17;3.20;;;;;;;11.25;86.08;100945.87;1726299;82;21025;-69
2021/09/15 04:42:31;;;;;;;6.30;4.00;;;;;;;11.37;86.05;100952.39;1746654;82;21073;-71
2021/09/15 04:45:09;;;;;;;6.00;3.58;;;;;;;11.47;85.99;100954.36;1743980;81;21175;-70
2021/09/15 04:47:52;;;;;;;6.17;3.43;;;;;;;11.54;85.75;100954.95;1729815;81;21062;-69
2021/09/15 04:50:36;;;;;;;7.37;3.85;;;;;;;11.61;85.40;100954.75;1734279;81;21522;-69
2021/09/15 04:53:10;;;;;;;8.20;3.83;;;;;;;11.68;84.94;100960.70;1730599;81;21118;-69
2021/09/15 04:55:42;;;;;;;6.87;4.10;;;;;;;11.74;84.21;100965.84;1742961;81;21325;-69
2021/09/15 04:58:14;;;;;;;8.23;4.97;;;;;;;11.80;83.68;100964.55;1756025;81;21417;-70
2021/09/15 05:00:49;;;;;;;10.67;4.43;;;;;;;11.87;83.23;100967.86;1731915;81;21205;-70
2021/09/15 05:03:25;;;;;;;6.73;4.00;;;;;;;11.96;82.76;100968.47;1737760;81;21196;-70
2021/09/15 05:05:59;;;;;;;8.37;4.27;;;;;;;12.09;82.12;100969.91;1736120;81;21165;-70
2021/09/15 05:08:33;;;;;;;6.20;3.97;;;;;;;12.17;81.41;100961.41;1736563;81;21382;-70
2021/09/15 05:11:11;;;;;;;6.58;4.10;;;;;;;12.28;80.69;100963.63;1707677;83;21102;-70
2021/09/15 05:13:48;;;;;;;8.03;4.50;;;;;;;12.35;79.95;100970.09;1736134;81;21067;-70
2021/09/15 05:16:21;;;;;;;9.57;4.60;;;;;;;12.38;79.08;100973.05;1724650;82;21310;-69
2021/09/15 05:18:58;;;;;;;6.37;4.23;;;;;;;12.46;78.53;100974.97;1726887;81;21777;-70
2021/09/15 05:21:35;;;;;;;10.27;4.97;;;;;;;12.53;78.08;100977.69;1741100;81;21278;-70
2021/09/15 05:24:13;;;;;;;7.45;4.83;;;;;;;12.60;77.80;100988.17;1721755;81;21271;-70
2021/09/15 05:26:46;;;;;;;8.73;4.63;;;;;;;12.70;77.75;100986.91;1717609;81;21042;-70
2021/09/15 05:29:14;;;;;;;8.60;5.47;;;;;;;12.78;77.69;100997.13;1750120;81;21533;-70
2021/09/15 05:31:46;;;;;;;9.30;5.80;;;;;;;12.88;77.64;100992.34;1723557;83;21366;-70
2021/09/15 05:34:19;;;;;;;8.50;5.70;;;;;;;13.00;77.44;100993.48;1726116;81;21391;-70
2021/09/15 05:36:53;;;;;;;9.25;5.83;;;;;;;13.08;77.23;100992.95;1736149;81;25678;-68
2021/09/15 05:39:23;;;;;;;12.43;5.90;;;;;;;13.21;76.82;100990.33;1725546;83;21049;-69
2021/09/15 05:41:58;;;;;;;8.60;5.50;;;;;;;13.30;76.67;100992.27;1718119;82;21353;-69
2021/09/15 05:44:26;;;;;;;10.83;5.30;;;;;;;13.44;76.38;100996.58;1724967;81;21288;-69
2021/09/15 05:46:55;;;;;;;9.53;4.93;;;;;;;13.69;75.41;100998.52;1714058;82;21825;-70
2021/09/15 05:49:23;;;;;;;10.80;4.93;;;;;;;13.69;75.41;100998.52;1706035;82;21911;-68
2021/09/15 05:52:16;;;;;;;8.90;5.40;;;;;;;13.91;73.39;100997.45;1726135;82;21389;-69
2021/09/15 05:55:00;;;;;;;8.93;4.87;;;;;;;13.91;73.39;100997.45;1691798;83;21402;-69
2021/09/15 05:57:38;;;;;;;10.30;4.85;;;;;;;13.98;72.72;101002.00;1720534;82;21526;-68
2021/09/15 06:00:14;;;;;;;8.20;4.43;;;;;;;14.08;71.60;101002.84;1717961;82;21079;-69
2021/09/15 06:02:54;;;;;;;8.23;3.97;;;;;;;14.15;70.29;101001.73;1660345;84;22103;-71
2021/09/15 06:05:39;;;;;;;9.37;4.07;;;;;;;14.34;67.12;101000.65;1708101;83;22077;-69
2021/09/15 06:08:05;;;;;;;12.27;4.30;;;;;;;14.34;67.12;101000.65;1724167;81;21440;-69
2021/09/15 06:10:33;;;;;;;10.20;4.57;;;;;;;14.43;65.84;101001.17;1710435;82;21690;-69
2021/09/15 06:13:01;;;;;;;7.93;3.97;;;;;;;14.49;65.78;101002.77;1742396;81;21593;-70
2021/09/15 06:15:28;;;;;;;7.53;4.07;;;;;;;14.64;64.28;100995.77;1738662;82;21857;-69
2021/09/15 06:17:58;;;;;;;7.40;4.17;;;;;;;14.74;63.93;100996.57;1721373;83;21714;-70
2021/09/15 06:20:26;;;;;;;7.17;3.93;;;;;;;14.74;63.93;100996.57;1700794;83;21718;-69
2021/09/15 06:23:05;;;;;;;8.60;4.20;;;;;;;14.92;62.97;101002.42;1723400;83;21757;-69
2021/09/15 06:25:49;;;;;;;9.47;4.10;;;;;;;14.92;62.97;101002.42;1705140;82;21590;-68
2021/09/15 06:28:16;;;;;;;6.60;2.70;;;;;;;15.00;62.34;101001.32;1724823;82;21590;-73
2021/09/15 06:30:44;;;;;;;6.50;2.80;;;;;;;15.10;59.87;101009.05;1716764;82;22284;-73
2021/09/15 06:33:11;;;;;;;8.20;2.90;;;;;;;15.18;58.41;101009.30;1701796;84;21749;-73
2021/09/15 06:35:37;;;;;;;6.40;2.47;;;;;;;15.26;56.65;101017.33;1693745;84;22240;-75
2021/09/15 06:38:04;;;;;;;5.87;2.27;;;;;;;15.32;55.59;101023.49;1713931;82;21775;-73
2021/09/15 06:40:32;;;;;;;6.90;2.63;;;;;;;15.35;54.75;101021.59;1700867;82;21731;-74
2021/09/15 06:42:59;;;;;;;4.87;2.60;;;;;;;15.40;54.54;101021.55;1712337;83;21805;-74
2021/09/15 06:45:25;;;;;;;6.67;2.70;;;;;;;15.47;53.05;101023.42;1710790;82;22219;-74
2021/09/15 06:47:54;;;;;;;6.77;3.10;;;;;;;15.54;53.66;101024.46;1706788;83;21753;-72
2021/09/15 06:50:20;;;;;;;7.67;2.70;;;;;;;15.63;53.84;101023.59;1713226;82;21739;-73
2021/09/15 06:52:49;;;;;;;6.57;3.03;;;;;;;15.70;53.41;101034.88;1729888;82;21728;-73
2021/09/15 06:55:18;;;;;;;8.83;3.40;;;;;;;15.77;53.37;101025.69;1731425;82;21748;-72
2021/09/15 06:57:45;;;;;;;11.77;4.03;;;;;;;15.84;53.80;101032.91;1729922;82;21795;-72
2021/09/15 07:00:14;;;;;;;12.37;4.27;;;;;;;15.91;53.97;101034.73;1718641;81;37476;-74
2021/09/15 07:02:43;;;;;;;11.17;3.40;;;;;;;15.96;54.09;101033.36;1728247;82;21768;-73
2021/09/15 07:05:10;;;;;;;10.70;3.23;;;;;;;16.00;54.45;101035.75;1725063;82;21793;-74
2021/09/15 07:07:38;;;;;;;7.73;3.20;;;;;;;16.06;54.34;101033.28;1730846;82;21126;-75
2021/09/15 07:10:07;;;;;;;6.33;3.10;;;;;;;16.20;54.22;101029.39;1700918;83;22283;-72
2021/09/15 07:12:35;;;;;;;9.50;3.40;;;;;;;16.24;53.98;101029.63;1722682;82;21037;-73
2021/09/15 07:15:04;;;;;;;8.17;3.07;;;;;;;16.24;53.98;101029.63;1711740;82;21415;-74
2021/09/15 07:17:33;;;;;;;4.73;2.30;;;;;;;16.35;54.14;101029.78;1723122;82;21131;-73
2021/09/15 07:20:00;;;;;;;7.27;3.00;;;;;;;16.41;53.93;101027.30;1709515;82;21711;-73
2021/09/15 07:22:28;;;;;;;8.10;3.10;;;;;;;16.47;52.96;101033.45;1710996;83;21086;-73
2021/09/15 07:24:56;;;;;;;7.23;3.13;;;;;;;16.51;52.83;101028.55;1728741;82;21123;-74
2021/09/15 07:27:23;;;;;;;8.27;3.50;;;;;;;16.61;52.38;101032.48;1711348;82;21082;-75
2021/09/15 07:29:50;;;;;;;9.50;3.03;;;;;;;16.65;51.74;101032.20;1711515;83;21143;-75
2021/09/15 07:32:17;;;;;;;8.03;3.60;;;;;;;16.70;51.66;101026.48;1699387;84;21081;-72
2021/09/15 07:34:45;;;;;;;9.83;3.37;;;;;;;16.77;51.23;101029.66;1708020;83;21059;-72
2021/09/15 07:37:14;;;;;;;10.00;3.80;;;;;;;16.84;51.09;101028.77;1708910;82;21067;-72
2021/09/15 07:39:41;;;;;;;7.33;3.30;;;;;;;16.87;50.15;101013.36;1690749;83;21422;-72
2021/09/15 07:42:08;;;;;;;9.47;3.30;;;;;;;16.88;49.63;101013.64;1708672;83;21078;-71
2021/09/15 07:44:34;;;;;;;9.83;3.93;;;;;;;16.90;49.54;101012.78;1704549;82;21070;-68
2021/09/15 07:47:02;;;;;;;7.47;3.30;;;;;;;16.89;49.66;101009.84;1694021;83;21214;-69
2021/09/15 07:49:29;;;;;;;8.40;3.47;;;;;;;16.88;48.71;101009.04;1718562;82;21335;-69
2021/09/15 07:51:56;;;;;;;8.00;3.83;;;;;;;16.95;49.03;101009.24;1700774;82;21127;-68
2021/09/15 07:54:23;;;;;;;9.40;3.57;;;;;;;17.04;49.83;101012.89;1681927;83;21081;-69
2021/09/15 07:56:52;;;;;;;9.83;3.83;;;;;;;17.13;50.08;101014.41;1695555;83;21139;-68
2021/09/15 07:59:19;;;;;;;10.40;4.47;;;;;;;17.24;49.84;101006.42;1690727;83;21130;-68
2021/09/15 08:01:46;;;;;;;8.57;4.03;;;;;;;17.33;50.00;101007.38;1715217;82;21039;-68
2021/09/15 08:04:13;;;;;;;9.73;3.80;;;;;;;17.41;49.08;101010.00;1707594;82;21543;-68
2021/09/15 08:06:39;;;;;;;10.17;3.80;;;;;;;17.47;49.32;101011.50;1720065;82;21108;-68
2021/09/15 08:09:06;;;;;;;10.90;4.40;;;;;;;17.50;48.77;101007.67;1702011;82;21093;-68
2021/09/15 08:11:33;;;;;;;10.80;4.47;;;;;;;17.58;48.78;101012.43;1716878;82;21160;-69
2021/09/15 08:14:00;;;;;;;10.60;4.30;;;;;;;17.67;48.53;101009.05;1713164;82;21087;-69
2021/09/15 08:16:27;;;;;;;8.50;4.60;;;;;;;17.76;48.74;101010.00;1703984;82;21045;-68
2021/09/15 08:18:54;;;;;;;10.20;4.83;;;;;;;17.77;48.69;101003.55;1706664;82;21640;-68
2021/09/15 08:21:20;;;;;;;8.53;4.87;;;;;;;17.75;49.06;101007.05;1711662;82;21680;-68
2021/09/15 08:23:47;;;;;;;8.13;4.23;;;;;;;17.73;48.98;101013.28;1710002;82;21540;-67
2021/09/15 08:26:14;;;;;;;8.00;4.50;;;;;;;17.78;49.19;101007.84;1723692;81;21086;-68
2021/09/15 08:28:41;;;;;;;11.87;4.30;;;;;;;17.91;49.54;101009.80;1699007;82;21019;-68
2021/09/15 08:31:09;;;;;;;10.97;4.60;;;;;;;18.00;49.16;100995.88;1710358;82;21018;-69
2021/09/15 08:33:37;;;;;;;9.47;4.70;;;;;;;18.05;48.46;100994.97;1706072;83;21108;-69
2021/09/15 08:36:04;;;;;;;10.13;4.93;;;;;;;18.09;48.99;100997.88;1708164;82;21141;-70
2021/09/15 08:38:31;;;;;;;10.07;5.20;;;;;;;18.17;48.55;101003.98;1723537;82;21537;-69
2021/09/15 08:40:57;;;;;;;6.90;4.40;;;;;;;18.17;48.55;100999.92;1709086;82;21631;-69
2021/09/15 08:43:24;;;;;;;10.43;5.10;;;;;;;18.21;48.65;101000.92;1717417;82;21085;-69
2021/09/15 08:45:55;;;;;;;11.07;4.90;;;;;;;18.31;48.50;101004.00;1710285;82;21063;-69
2021/09/15 08:48:22;;;;;;;8.53;4.67;;;;;;;18.39;48.24;100993.28;1696095;83;21947;-69
2021/09/15 08:50:49;;;;;;;10.20;5.13;;;;;;;18.44;48.00;100990.49;1700889;82;21404;-68
2021/09/15 08:53:18;;;;;;;8.27;4.83;;;;;;;18.38;47.62;100989.53;1723245;82;21049;-68
2021/09/15 08:55:46;;;;;;;9.20;4.87;;;;;;;18.39;47.79;100978.95;1708856;82;21064;-69
2021/09/15 08:58:15;;;;;;;8.50;4.60;;;;;;;18.44;47.53;100982.37;1689803;83;21084;-69
2021/09/15 09:00:42;;;;;;;9.53;4.30;;;;;;;18.51;47.76;100983.33;1705337;82;21168;-69
2021/09/15 09:03:09;;;;;;;9.47;4.67;;;;;;;18.54;47.61;100976.53;1711635;82;21539;-69
2021/09/15 09:05:37;;;;;;;10.33;5.23;;;;;;;18.59;47.45;100979.12;1709969;83;21090;-69
2021/09/15 09:08:24;;;;;;;10.97;4.90;;;;;;;18.69;47.31;100983.80;1711765;83;21085;-69
2021/09/15 09:10:56;;;;;;;11.87;4.90;;;;;;;18.82;47.04;100979.52;1711684;82;21607;-69
2021/09/15 09:13:20;;;;;;;7.87;4.27;;;;;;;18.92;47.34;100974.42;1711374;82;21185;-69
2021/09/15 09:15:51;;;;;;;9.37;4.77;;;;;;;19.02;47.05;100972.88;1709761;82;21192;-69
2021/09/15 09:18:19;;;;;;;7.83;4.10;;;;;;;19.04;46.38;100974.71;1721721;82;21591;-70
2021/09/15 09:20:48;;;;;;;7.60;4.30;;;;;;;18.95;45.82;100981.41;1726131;82;21043;-69
2021/09/15 09:23:17;;;;;;;9.13;3.67;;;;;;;18.93;45.75;100975.48;1709152;82;21066;-70
2021/09/15 09:25:57;;;;;;;7.93;3.53;;;;;;;19.01;45.25;100973.17;1725346;82;21104;-70
2021/09/15 09:28:34;;;;;;;9.80;4.60;;;;;;;19.03;45.87;100973.13;1724742;82;21089;-69
2021/09/15 09:31:06;;;;;;;8.63;3.80;;;;;;;19.15;45.92;100972.05;1703971;82;21046;-69
2021/09/15 09:33:34;;;;;;;8.67;3.70;;;;;;;19.28;45.29;100970.95;1724485;81;21056;-69
2021/09/15 09:36:06;;;;;;;8.43;3.60;;;;;;;19.33;44.14;100969.49;1700331;83;21057;-69
2021/09/15 09:38:39;;;;;;;8.40;4.08;;;;;;;19.28;43.42;100969.59;1685997;83;21803;-69
2021/09/15 09:41:15;;;;;;;6.43;3.20;;;;;;;19.26;43.86;100973.97;1694952;83;21067;-70
2021/09/15 09:43:51;;;;;;;10.10;3.80;;;;;;;19.29;43.29;100965.24;1687531;83;21098;-70
2021/09/15 09:46:31;;;;;;;6.93;2.90;;;;;;;19.29;43.92;100963.89;1703598;82;21107;-69
2021/09/15 09:49:00;;;;;;;6.70;2.80;;;;;;;19.36;42.64;100958.84;1706114;82;21053;-69
2021/09/15 09:51:38;;;;;;;9.87;3.90;;;;;;;19.39;42.35;100960.95;1707037;82;21127;-71
2021/09/15 09:54:27;;;;;;;7.30;3.07;;;;;;;19.43;41.70;100954.36;1709857;82;21466;-69
2021/09/15 09:56:58;;;;;;;7.47;3.13;;;;;;;19.48;42.06;100947.48;1711237;82;21108;-70
2021/09/15 09:59:28;;;;;;;8.37;3.17;;;;;;;19.51;41.33;100963.65;1687257;83;20956;-71
2021/09/15 10:01:57;;;;;;;5.93;3.10;;;;;;;19.53;41.27;100954.67;1709649;83;21029;-71
2021/09/15 10:04:24;;;;;;;6.57;2.73;;;;;;;19.59;41.29;100952.09;1712451;82;21645;-72
2021/09/15 10:06:52;;;;;;;6.73;2.53;;;;;;;19.62;40.13;100950.92;1713964;82;21043;-70
2021/09/15 10:09:21;;;;;;;8.47;2.70;;;;;;;19.62;39.66;100947.41;1695173;83;21055;-71
2021/09/15 10:11:49;;;;;;;10.37;2.83;;;;;;;19.60;39.79;100944.20;1713870;82;21580;-71
2021/09/15 10:14:17;;;;;;;5.97;2.50;;;;;;;19.64;39.46;100946.56;1711053;82;21137;-69
2021/09/15 10:17:00;;;;;;;7.20;2.70;;;;;;;19.66;38.78;100948.42;1712818;82;21053;-71
2021/09/15 10:19:39;;;;;;;5.30;2.37;;;;;;;19.68;38.67;100940.80;1691929;83;21033;-71
2021/09/15 10:22:16;;;;;;;4.73;2.40;;;;;;;19.73;38.19;100941.22;1717208;82;21577;-72
2021/09/15 10:24:56;;;;;;;5.97;2.97;;;;;;;19.72;38.20;100934.20;1716943;82;21165;-70
2021/09/15 10:30:14;;;;;;;7.30;2.87;;;;;;;19.80;39.59;100930.17;1661387;84;21904;-69
2021/09/15 10:32:50;;;;;;;5.73;2.50;;;;;;;19.93;39.15;100927.14;1702809;82;21113;-70
2021/09/15 10:35:47;;;;;;;7.43;2.40;;;;;;;20.03;38.83;100914.67;1703419;82;21087;-71
2021/09/15 10:38:14;;;;;;;5.77;2.20;;;;;;;20.14;37.98;100923.36;1701324;82;21081;-69
2021/09/15 10:40:42;;;;;;;4.90;2.10;;;;;;;20.13;36.30;100919.02;1692932;83;21081;-71
2021/09/15 10:43:41;;;;;;;3.73;2.20;;;;;;;20.11;36.75;100911.21;1675759;84;21352;-71
2021/09/15 10:46:23;;;;;;;8.53;2.73;;;;;;;20.12;36.91;100908.73;1696781;83;21070;-70
2021/09/15 10:49:26;;;;;;;6.03;2.20;;;;;;;20.16;37.26;100914.33;1691442;83;21559;-71
2021/09/15 10:52:13;;;;;;;5.80;2.03;;;;;;;20.22;37.25;100906.87;1688875;83;21652;-70
2021/09/15 10:54:52;;;;;;;5.60;2.17;;;;;;;20.19;36.59;100903.42;1694990;83;21168;-71
2021/09/15 10:57:30;;;;;;;8.47;2.30;;;;;;;20.25;36.90;100900.81;1701764;83;21199;-70
2021/09/15 10:59:59;;;;;;;7.23;2.40;;;;;;;20.28;35.92;100902.34;1697590;83;21140;-72
2021/09/15 11:02:38;;;;;;;5.67;1.90;;;;;;;20.34;35.24;100903.80;1670889;84;21609;-71
2021/09/15 11:05:30;;;;;;;5.67;2.03;;;;;;;20.39;34.70;100896.06;1661172;84;21102;-71
2021/09/15 11:07:58;;;;;;;5.10;2.00;;;;;;;20.46;34.04;100894.25;1688445;83;21057;-71
2021/09/15 11:10:36;;;;;;;6.43;2.20;;;;;;;20.45;34.02;100889.95;1691349;83;21015;-70
2021/09/15 11:13:17;;;;;;;7.43;2.53;;;;;;;20.43;34.71;100898.95;1698006;83;21094;-70
2021/09/15 11:15:49;;;;;;;10.83;2.30;;;;;;;20.43;34.87;100896.23;1715463;82;21612;-71
2021/09/15 11:18:25;;;;;;;7.58;2.95;;;;;;;20.42;34.71;100895.44;1690982;84;21671;-70
2021/09/15 11:20:57;;;;;;;5.97;2.30;;;;;;;20.39;35.04;100887.36;1707696;82;21461;-70
2021/09/15 11:23:29;;;;;;;4.57;2.40;;;;;;;20.35;35.03;100883.69;1695531;83;21188;-70
2021/09/15 11:25:57;;;;;;;6.10;2.53;;;;;;;20.35;34.82;100876.91;1674446;84;21524;-70
2021/09/15 11:28:24;;;;;;;7.97;2.60;;;;;;;20.39;35.63;100873.80;1671247;84;21210;-70
2021/09/15 11:30:59;;;;;;;5.03;2.30;;;;;;;20.47;35.05;100875.52;1694911;84;21128;-70
2021/09/15 11:33:28;;;;;;;7.40;2.77;;;;;;;20.51;33.21;100872.44;1707789;82;21269;-71
2021/09/15 11:36:02;;;;;;;8.43;3.00;;;;;;;20.51;33.84;100868.37;1690649;84;21120;-71
2021/09/15 11:38:39;;;;;;;6.97;2.20;;;;;;;20.53;33.67;100868.30;1676570;83;21133;-72
2021/09/15 11:41:16;;;;;;;8.37;2.63;;;;;;;20.56;32.56;100879.06;1696260;82;22529;-71
2021/09/15 11:43:45;;;;;;;5.00;2.20;;;;;;;20.55;32.92;100862.55;1702045;82;21026;-70
2021/09/15 11:46:13;;;;;;;8.87;2.70;;;;;;;20.60;31.55;100860.48;1711921;81;21567;-70
2021/09/15 11:48:41;;;;;;;5.73;2.70;;;;;;;20.64;32.11;100857.94;1712531;82;22163;-70
2021/09/15 11:51:23;;;;;;;5.57;2.67;;;;;;;20.68;32.60;100858.89;1712855;81;21012;-71
2021/09/15 11:54:14;;;;;;;6.67;2.80;;;;;;;20.72;31.83;100847.63;1693573;83;21080;-69
2021/09/15 11:56:45;;;;;;;6.93;2.87;;;;;;;20.76;31.78;100852.69;1691067;82;21058;-70